Time;durP1;ratioP1;P1;durP2;ratioP2;P2;SDS_P1;SDS_P2;PMS_P1;PMS_P2;Temp;Humidity;BMP_temperature;BMP_pressure;BME280_temperature;BME280_humidity;BME280_pressure;Samples;Min_cycle;Max_cycle;Signal;HPM_P1;HPM_P2
2022/08/17 00:00:54;;;;;;;10.18;9.55;;;;;;;;;;5040127;28;20565;-61
2022/08/17 00:03:27;;;;;;;9.93;9.32;;;;;;;;;;5037320;28;20036;-61
2022/08/17 00:06:01;;;;;;;10.63;9.93;;;;;;;;;;5038555;28;20065;-61
2022/08/17 00:08:33;;;;;;;9.07;8.48;;;;;;;;;;5036040;28;20509;-61
2022/08/17 00:10:59;;;;;;;11.68;10.88;;;;;;;;;;5033092;28;20034;-61
2022/08/17 00:13:33;;;;;;;11.10;10.40;;;;;;;;;;5034450;28;20656;-62
2022/08/17 00:16:03;;;;;;;8.95;8.35;;;;;;;;;;5038404;28;20033;-61
2022/08/17 00:18:30;;;;;;;9.27;8.68;;;;;;;;;;5039138;28;20030;-61
2022/08/17 00:20:56;;;;;;;9.93;9.32;;;;;;;;;;5034487;28;20482;-61
2022/08/17 00:23:22;;;;;;;9.10;8.50;;;;;;;;;;5036145;28;20091;-61
2022/08/17 00:25:48;;;;;;;8.73;8.13;;;;;;;;;;5045470;28;20041;-61
2022/08/17 00:28:15;;;;;;;8.98;8.38;;;;;;;;;;5038016;28;20040;-61
2022/08/17 00:30:46;;;;;;;8.65;8.05;;;;;;;;;;5038771;28;20484;-61
2022/08/17 00:33:14;;;;;;;9.88;9.27;;;;;;;;;;5037368;28;20510;-62
2022/08/17 00:35:42;;;;;;;10.52;9.82;;;;;;;;;;5037041;28;20423;-62
2022/08/17 00:38:11;;;;;;;11.10;10.43;;;;;;;;;;5036312;28;20050;-62
2022/08/17 00:40:43;;;;;;;10.98;10.27;;;;;;;;;;5037464;28;20029;-61
2022/08/17 00:43:28;;;;;;;9.90;9.25;;;;;;;;;;5038557;28;20382;-62
2022/08/17 00:45:54;;;;;;;12.82;12.02;;;;;;;;;;5039443;28;20036;-62
2022/08/17 00:48:20;;;;;;;9.38;8.77;;;;;;;;;;5038371;28;20112;-62
2022/08/17 00:50:57;;;;;;;9.93;9.25;;;;;;;;;;5036295;28;20025;-62
2022/08/17 00:53:24;;;;;;;9.30;8.70;;;;;;;;;;5037610;28;20033;-62
2022/08/17 00:55:49;;;;;;;9.32;8.73;;;;;;;;;;5036655;28;20080;-63
2022/08/17 00:58:15;;;;;;;9.35;8.75;;;;;;;;;;5035822;28;20033;-62
2022/08/17 01:00:45;;;;;;;10.20;9.30;;;;;;;;;;5034411;28;20025;-63
2022/08/17 01:03:18;;;;;;;10.43;9.82;;;;;;;;;;5038189;28;20328;-62
2022/08/17 01:05:47;;;;;;;9.63;9.02;;;;;;;;;;5035593;28;20036;-62
2022/08/17 01:08:15;;;;;;;9.38;8.75;;;;;;;;;;5037978;28;20024;-62
2022/08/17 01:10:49;;;;;;;9.27;8.68;;;;;;;;;;5035650;28;20044;-62
2022/08/17 01:13:15;;;;;;;8.23;7.70;;;;;;;;;;5035432;28;20021;-62
2022/08/17 01:15:52;;;;;;;8.20;7.68;;;;;;;;;;5035440;28;20064;-62
2022/08/17 01:18:17;;;;;;;7.40;6.90;;;;;;;;;;5036425;28;20037;-62
2022/08/17 01:20:48;;;;;;;8.63;8.02;;;;;;;;;;5037252;28;20082;-62
2022/08/17 01:23:14;;;;;;;8.10;7.57;;;;;;;;;;5035774;28;20033;-62
2022/08/17 01:25:40;;;;;;;8.68;7.97;;;;;;;;;;5041097;28;20037;-62
2022/08/17 01:28:06;;;;;;;8.35;7.85;;;;;;;;;;5037772;28;20438;-62
2022/08/17 01:30:31;;;;;;;9.05;8.45;;;;;;;;;;5041541;28;20033;-62
2022/08/17 01:32:56;;;;;;;9.00;8.40;;;;;;;;;;5040440;28;20068;-62
2022/08/17 01:35:22;;;;;;;10.52;9.82;;;;;;;;;;5032962;28;20489;-62
2022/08/17 01:37:47;;;;;;;9.18;8.57;;;;;;;;;;5037058;28;20029;-62
2022/08/17 01:40:22;;;;;;;9.10;8.50;;;;;;;;;;5035290;28;20075;-62
2022/08/17 01:42:54;;;;;;;9.27;8.57;;;;;;;;;;5039808;28;20098;-62
2022/08/17 01:45:23;;;;;;;9.05;8.45;;;;;;;;;;5034876;28;20623;-62
2022/08/17 01:47:50;;;;;;;8.98;8.38;;;;;;;;;;5036536;28;20080;-62
2022/08/17 01:50:21;;;;;;;9.90;9.30;;;;;;;;;;5036123;28;20371;-62
2022/08/17 01:52:48;;;;;;;9.23;8.63;;;;;;;;;;5036460;28;20112;-68
2022/08/17 01:55:19;;;;;;;11.07;10.38;;;;;;;;;;5036500;28;20032;-68
2022/08/17 01:57:44;;;;;;;11.43;10.63;;;;;;;;;;5033613;28;20032;-68
2022/08/17 02:00:12;;;;;;;10.82;10.13;;;;;;;;;;5036622;28;20029;-68
2022/08/17 02:02:38;;;;;;;11.43;10.73;;;;;;;;;;5036859;28;20049;-67
2022/08/17 02:05:05;;;;;;;12.73;11.93;;;;;;;;;;5036700;28;20033;-67
2022/08/17 02:07:31;;;;;;;12.10;11.38;;;;;;;;;;5038593;28;20056;-67
2022/08/17 02:09:56;;;;;;;12.68;11.93;;;;;;;;;;5036356;28;20344;-67
2022/08/17 02:12:22;;;;;;;14.73;13.70;;;;;;;;;;5042457;28;20025;-68
2022/08/17 02:14:49;;;;;;;14.15;13.35;;;;;;;;;;5032447;28;20096;-67
2022/08/17 02:17:14;;;;;;;14.68;13.75;;;;;;;;;;5036031;28;20029;-67
2022/08/17 02:19:40;;;;;;;16.48;15.48;;;;;;;;;;5035601;28;20045;-68
2022/08/17 02:22:05;;;;;;;13.82;12.98;;;;;;;;;;5034811;28;20059;-68
2022/08/17 02:24:34;;;;;;;14.05;13.23;;;;;;;;;;5034231;28;20040;-68
2022/08/17 02:27:00;;;;;;;17.45;16.13;;;;;;;;;;5034831;28;20038;-69
2022/08/17 02:29:25;;;;;;;16.33;15.30;;;;;;;;;;5034883;28;20037;-69
2022/08/17 02:31:51;;;;;;;16.63;15.63;;;;;;;;;;5039437;28;20040;-68
2022/08/17 02:34:16;;;;;;;15.35;14.45;;;;;;;;;;5036899;28;20036;-67
2022/08/17 02:36:42;;;;;;;15.25;14.32;;;;;;;;;;5036137;28;20450;-67
2022/08/17 02:39:09;;;;;;;15.77;14.77;;;;;;;;;;5037861;28;20125;-67
2022/08/17 02:41:36;;;;;;;16.00;15.10;;;;;;;;;;5037739;28;20481;-67
2022/08/17 02:44:03;;;;;;;13.93;13.13;;;;;;;;;;5034068;28;20112;-68
2022/08/17 02:46:29;;;;;;;15.88;14.98;;;;;;;;;;5032971;28;20080;-67
2022/08/17 02:48:55;;;;;;;15.70;14.80;;;;;;;;;;5036116;28;20461;-67
2022/08/17 02:51:21;;;;;;;16.23;15.32;;;;;;;;;;5032542;28;20064;-67
2022/08/17 02:53:46;;;;;;;16.05;15.15;;;;;;;;;;5032881;28;20473;-67
2022/08/17 02:56:12;;;;;;;16.40;15.40;;;;;;;;;;5035507;28;20079;-67
2022/08/17 02:58:37;;;;;;;16.58;15.13;;;;;;;;;;5037856;28;20071;-67
2022/08/17 03:01:04;;;;;;;15.45;14.55;;;;;;;;;;5035740;28;20035;-67
2022/08/17 03:03:30;;;;;;;19.13;17.98;;;;;;;;;;5036673;28;20041;-67
2022/08/17 03:05:55;;;;;;;17.52;16.25;;;;;;;;;;5031563;28;20021;-67
2022/08/17 03:08:22;;;;;;;18.50;17.50;;;;;;;;;;5035959;28;20466;-67
2022/08/17 03:10:47;;;;;;;17.35;16.15;;;;;;;;;;5033674;28;20116;-67
2022/08/17 03:13:14;;;;;;;16.23;15.32;;;;;;;;;;5030874;28;20068;-67
2022/08/17 03:15:43;;;;;;;15.75;14.85;;;;;;;;;;5036122;28;20078;-67
2022/08/17 03:18:10;;;;;;;14.57;13.68;;;;;;;;;;5038843;28;20036;-67
2022/08/17 03:20:36;;;;;;;15.80;14.90;;;;;;;;;;5037016;28;20053;-67
2022/08/17 03:23:02;;;;;;;17.08;16.08;;;;;;;;;;5037108;28;20053;-67
2022/08/17 03:25:31;;;;;;;16.70;15.73;;;;;;;;;;5036855;28;20029;-68
2022/08/17 03:27:57;;;;;;;16.52;15.48;;;;;;;;;;5038221;28;20037;-68
2022/08/17 03:30:24;;;;;;;14.20;13.32;;;;;;;;;;5035633;28;20032;-68
2022/08/17 03:32:52;;;;;;;16.15;15.18;;;;;;;;;;5037962;28;20031;-68
2022/08/17 03:35:21;;;;;;;14.73;13.88;;;;;;;;;;5034398;28;20075;-68
2022/08/17 03:37:46;;;;;;;15.50;14.60;;;;;;;;;;5035500;28;20052;-68
2022/08/17 03:40:12;;;;;;;18.65;17.60;;;;;;;;;;5034173;28;20347;-68
2022/08/17 03:42:39;;;;;;;14.98;14.10;;;;;;;;;;5033524;28;20117;-68
2022/08/17 03:45:09;;;;;;;15.15;14.27;;;;;;;;;;5035534;28;20374;-67
2022/08/17 03:56:41;;;;;;;16.48;15.52;;;;;;;;;;5036632;28;20126;-67
2022/08/17 03:58:36;;;;;;;15.88;14.88;;;;;;;;;;5036828;28;20034;-67
2022/08/17 04:01:02;;;;;;;14.65;13.75;;;;;;;;;;5032771;28;20537;-67
2022/08/17 04:03:27;;;;;;;16.08;15.07;;;;;;;;;;5034368;28;20047;-67
2022/08/17 04:05:53;;;;;;;16.20;15.20;;;;;;;;;;5032601;28;20037;-67
2022/08/17 04:08:18;;;;;;;16.52;15.55;;;;;;;;;;5036242;28;20071;-67
2022/08/17 04:10:43;;;;;;;14.68;13.77;;;;;;;;;;5036100;28;20029;-67
2022/08/17 04:13:09;;;;;;;17.92;16.88;;;;;;;;;;5039043;28;20569;-67
2022/08/17 04:15:34;;;;;;;13.98;13.18;;;;;;;;;;5039059;28;20505;-66
2022/08/17 04:17:59;;;;;;;14.95;14.07;;;;;;;;;;5037240;28;20021;-66
2022/08/17 04:20:26;;;;;;;14.38;13.38;;;;;;;;;;5036008;28;20036;-66
2022/08/17 04:23:03;;;;;;;16.17;15.18;;;;;;;;;;5038602;28;20481;-66
2022/08/17 04:25:31;;;;;;;14.80;13.98;;;;;;;;;;5031588;28;20565;-66
2022/08/17 04:27:58;;;;;;;13.55;12.75;;;;;;;;;;5038172;28;20036;-66
2022/08/17 04:30:25;;;;;;;12.95;12.15;;;;;;;;;;5041822;28;20037;-67
2022/08/17 04:32:51;;;;;;;12.65;11.85;;;;;;;;;;5041151;28;20033;-66
2022/08/17 04:35:18;;;;;;;14.40;13.60;;;;;;;;;;5036624;28;20044;-65
2022/08/17 04:37:44;;;;;;;15.77;14.88;;;;;;;;;;5040899;28;20070;-66
2022/08/17 04:43:09;;;;;;;14.50;13.70;;;;;;;;;;5036172;28;20419;-65
2022/08/17 04:45:42;;;;;;;16.30;15.38;;;;;;;;;;5037945;28;20072;-66
2022/08/17 04:48:07;;;;;;;16.63;15.63;;;;;;;;;;5035270;28;20040;-66
2022/08/17 04:50:35;;;;;;;15.43;14.52;;;;;;;;;;5032769;28;20098;-66
2022/08/17 04:53:01;;;;;;;19.38;18.27;;;;;;;;;;5040083;28;20025;-66
2022/08/17 04:55:26;;;;;;;16.92;15.93;;;;;;;;;;5038044;28;20371;-65
2022/08/17 04:57:51;;;;;;;19.15;18.05;;;;;;;;;;5034671;28;20051;-66
2022/08/17 05:00:17;;;;;;;16.23;15.23;;;;;;;;;;5038545;28;20437;-65
2022/08/17 05:02:49;;;;;;;18.50;17.48;;;;;;;;;;5037838;28;20051;-65
2022/08/17 05:05:24;;;;;;;16.80;15.82;;;;;;;;;;5033441;28;20072;-65
2022/08/17 05:07:54;;;;;;;16.60;15.60;;;;;;;;;;5034144;28;20145;-67
2022/08/17 05:10:21;;;;;;;17.83;16.83;;;;;;;;;;5035478;28;20029;-66
2022/08/17 05:12:47;;;;;;;18.17;17.15;;;;;;;;;;5037741;28;20061;-66
2022/08/17 05:15:15;;;;;;;15.93;15.02;;;;;;;;;;5037561;28;20110;-65
2022/08/17 05:17:43;;;;;;;13.73;12.90;;;;;;;;;;5035911;28;20025;-66
2022/08/17 05:20:08;;;;;;;18.42;17.40;;;;;;;;;;5040295;28;20026;-66
2022/08/17 05:22:34;;;;;;;17.70;16.73;;;;;;;;;;5037929;28;20406;-65
2022/08/17 05:24:59;;;;;;;16.40;15.40;;;;;;;;;;5038825;28;20156;-65
2022/08/17 05:27:24;;;;;;;17.42;16.42;;;;;;;;;;5035009;28;20040;-65
2022/08/17 05:29:50;;;;;;;14.73;13.88;;;;;;;;;;5036613;28;20029;-65
2022/08/17 05:32:16;;;;;;;31.33;29.65;;;;;;;;;;5035853;28;20638;-64
2022/08/17 05:34:41;;;;;;;29.80;28.25;;;;;;;;;;5035503;28;20447;-64
2022/08/17 05:37:06;;;;;;;28.52;27.00;;;;;;;;;;5035630;28;20438;-64
2022/08/17 05:39:32;;;;;;;27.02;25.60;;;;;;;;;;5036396;28;20678;-63
2022/08/17 05:42:01;;;;;;;28.42;26.92;;;;;;;;;;5037889;28;20040;-63
2022/08/17 05:44:26;;;;;;;17.35;16.35;;;;;;;;;;5036548;28;20816;-63
2022/08/17 05:46:53;;;;;;;22.17;20.98;;;;;;;;;;5034483;28;20124;-63
2022/08/17 05:49:26;;;;;;;32.05;30.40;;;;;;;;;;5035243;28;20054;-62
2022/08/17 05:52:08;;;;;;;32.03;30.35;;;;;;;;;;5038120;28;20040;-63
2022/08/17 05:54:45;;;;;;;31.60;29.95;;;;;;;;;;5037359;28;20033;-62
2022/08/17 05:57:31;;;;;;;31.15;29.35;;;;;;;;;;5035432;28;20029;-63
2022/08/17 06:00:04;;;;;;;29.58;27.92;;;;;;;;;;5037456;28;20049;-62
2022/08/17 06:02:59;;;;;;;34.90;33.08;;;;;;;;;;5037111;28;20021;-62
2022/08/17 06:06:01;;;;;;;35.20;33.30;;;;;;;;;;5033819;28;20018;-62
2022/08/17 06:08:36;;;;;;;25.27;23.92;;;;;;;;;;5036394;28;20020;-63
2022/08/17 06:11:12;;;;;;;24.73;23.38;;;;;;;;;;5031357;28;20025;-63
2022/08/17 06:14:25;;;;;;;27.83;26.33;;;;;;;;;;5035449;28;20033;-62
2022/08/17 06:17:01;;;;;;;26.50;25.00;;;;;;;;;;5028900;28;20037;-63
2022/08/17 06:19:35;;;;;;;25.05;23.73;;;;;;;;;;5033200;28;20029;-61
2022/08/17 06:22:02;;;;;;;29.77;28.17;;;;;;;;;;5034510;28;20044;-62
2022/08/17 06:24:36;;;;;;;30.48;28.85;;;;;;;;;;5036571;28;20066;-62
2022/08/17 06:27:35;;;;;;;34.78;32.92;;;;;;;;;;5035632;28;20260;-62
2022/08/17 06:30:11;;;;;;;29.40;27.85;;;;;;;;;;5009822;28;20564;-62
2022/08/17 06:32:40;;;;;;;31.02;29.35;;;;;;;;;;5032961;28;20124;-63
2022/08/17 06:35:07;;;;;;;33.50;31.75;;;;;;;;;;5037588;28;20021;-62
2022/08/17 06:37:58;;;;;;;21.38;20.17;;;;;;;;;;5036049;28;20103;-62
2022/08/17 06:40:50;;;;;;;17.67;16.42;;;;;;;;;;5036957;28;20175;-62
2022/08/17 06:43:25;;;;;;;21.67;20.42;;;;;;;;;;5034898;28;20502;-62
2022/08/17 06:46:03;;;;;;;15.52;14.63;;;;;;;;;;5032872;28;20459;-61
2022/08/17 06:48:32;;;;;;;24.40;23.02;;;;;;;;;;5033615;28;20048;-63
2022/08/17 06:51:02;;;;;;;18.85;17.77;;;;;;;;;;5037537;28;20581;-61
2022/08/17 06:53:53;;;;;;;15.75;14.40;;;;;;;;;;5036589;28;20044;-62
2022/08/17 06:56:56;;;;;;;18.48;17.45;;;;;;;;;;5035320;28;20065;-61
2022/08/17 06:59:32;;;;;;;25.10;23.75;;;;;;;;;;5020361;28;20490;-62
2022/08/17 07:02:04;;;;;;;28.25;26.73;;;;;;;;;;5035019;28;20107;-61
2022/08/17 07:04:30;;;;;;;23.98;22.65;;;;;;;;;;5034037;28;20052;-61
2022/08/17 07:08:00;;;;;;;35.28;33.45;;;;;;;;;;5036710;28;20048;-61
2022/08/17 07:09:55;;;;;;;22.73;21.38;;;;;;;;;;5035850;28;20025;-61
2022/08/17 07:12:25;;;;;;;27.50;26.00;;;;;;;;;;5034661;28;20363;-61
2022/08/17 07:15:11;;;;;;;26.88;25.45;;;;;;;;;;5035945;28;20108;-61
2022/08/17 07:17:37;;;;;;;26.15;24.67;;;;;;;;;;5031805;28;20577;-61
2022/08/17 07:20:08;;;;;;;20.50;19.35;;;;;;;;;;5034204;28;20036;-62
2022/08/17 07:23:14;;;;;;;34.00;32.00;;;;;;;;;;5034158;28;20132;-61
2022/08/17 07:25:39;;;;;;;23.38;22.10;;;;;;;;;;5035928;28;20025;-61
2022/08/17 07:28:06;;;;;;;25.52;24.15;;;;;;;;;;5033371;28;20044;-61
2022/08/17 07:30:50;;;;;;;23.25;21.95;;;;;;;;;;5035739;28;20109;-61
2022/08/17 07:33:21;;;;;;;25.70;24.30;;;;;;;;;;5035221;28;20028;-61
2022/08/17 07:35:48;;;;;;;17.55;16.55;;;;;;;;;;5034588;28;20106;-61
2022/08/17 07:38:20;;;;;;;21.50;20.27;;;;;;;;;;5034296;28;20076;-61
2022/08/17 07:41:01;;;;;;;20.85;19.75;;;;;;;;;;5034485;28;20018;-61
2022/08/17 07:43:31;;;;;;;24.40;23.00;;;;;;;;;;5036497;28;20048;-61
2022/08/17 07:49:16;;;;;;;13.80;13.00;;;;;;;;;;5028257;28;20201;-61
2022/08/17 07:51:42;;;;;;;11.30;10.60;;;;;;;;;;5029148;28;20047;-61
2022/08/17 07:54:20;;;;;;;14.20;13.35;;;;;;;;;;5034313;28;20538;-61
2022/08/17 07:56:49;;;;;;;12.75;11.95;;;;;;;;;;5035156;28;20048;-61
2022/08/17 07:59:16;;;;;;;15.52;14.43;;;;;;;;;;5035526;28;20030;-61
2022/08/17 08:02:04;;;;;;;18.38;17.38;;;;;;;;;;5039306;28;20103;-61
2022/08/17 08:04:30;;;;;;;22.23;20.92;;;;;;;;;;5035066;28;20041;-61
2022/08/17 08:07:00;;;;;;;43.15;40.92;;;;;;;;;;5036002;28;20029;-61
2022/08/17 08:09:31;;;;;;;39.53;37.53;;;;;;;;;;5037240;28;20460;-61
2022/08/17 08:11:57;;;;;;;25.20;23.77;;;;;;;;;;5037252;28;20030;-62
2022/08/17 08:14:37;;;;;;;16.48;15.55;;;;;;;;;;5038355;28;20519;-61
2022/08/17 08:17:07;;;;;;;16.27;15.18;;;;;;;;;;5040624;28;20033;-62
2022/08/17 08:19:33;;;;;;;26.40;24.98;;;;;;;;;;5034323;28;20155;-63
2022/08/17 08:22:09;;;;;;;36.38;34.47;;;;;;;;;;5041075;28;20105;-62
2022/08/17 08:24:50;;;;;;;29.60;27.98;;;;;;;;;;5035708;28;20558;-62
2022/08/17 08:27:33;;;;;;;32.13;30.42;;;;;;;;;;5038653;28;20446;-62
2022/08/17 08:30:07;;;;;;;25.92;24.52;;;;;;;;;;5038908;28;20106;-62
2022/08/17 08:32:57;;;;;;;42.38;40.20;;;;;;;;;;5038038;28;20029;-62
2022/08/17 08:35:38;;;;;;;45.05;42.78;;;;;;;;;;5040360;28;20037;-62
2022/08/17 08:38:21;;;;;;;44.45;42.15;;;;;;;;;;5038077;28;20028;-63
2022/08/17 08:40:51;;;;;;;43.70;41.50;;;;;;;;;;5038412;28;20058;-62
2022/08/17 08:43:59;;;;;;;47.88;45.38;;;;;;;;;;5038527;28;20024;-63
2022/08/17 08:46:56;;;;;;;42.53;40.17;;;;;;;;;;5038275;28;20041;-63
2022/08/17 08:49:38;;;;;;;41.53;39.40;;;;;;;;;;5036345;28;20124;-62
2022/08/17 08:52:13;;;;;;;45.80;43.35;;;;;;;;;;5037839;28;20071;-62
2022/08/17 08:54:52;;;;;;;47.63;45.15;;;;;;;;;;5036794;28;20142;-62
2022/08/17 08:57:30;;;;;;;47.22;44.78;;;;;;;;;;5035851;28;20071;-63
2022/08/17 09:00:15;;;;;;;42.63;40.40;;;;;;;;;;5036055;28;20024;-62
2022/08/17 09:03:01;;;;;;;48.72;46.22;;;;;;;;;;5037898;28;20084;-62
2022/08/17 09:06:08;;;;;;;48.08;45.58;;;;;;;;;;5039076;28;20037;-62
2022/08/17 09:08:45;;;;;;;45.05;42.72;;;;;;;;;;5005793;28;20049;-61
2022/08/17 09:11:34;;;;;;;47.40;44.95;;;;;;;;;;5035156;28;20086;-61
2022/08/17 09:14:21;;;;;;;46.53;44.15;;;;;;;;;;5039825;28;20897;-61
2022/08/17 09:17:04;;;;;;;30.70;29.10;;;;;;;;;;5036391;28;20383;-61
2022/08/17 09:19:45;;;;;;;43.88;41.58;;;;;;;;;;5038699;28;20112;-61
2022/08/17 09:22:30;;;;;;;51.60;48.70;;;;;;;;;;5035757;28;20020;-61
2022/08/17 09:25:02;;;;;;;41.53;39.40;;;;;;;;;;5038885;28;20083;-61
2022/08/17 09:27:46;;;;;;;51.30;48.67;;;;;;;;;;5040437;28;20483;-61
2022/08/17 09:30:13;;;;;;;49.03;46.50;;;;;;;;;;5039697;28;20059;-61
2022/08/17 09:32:42;;;;;;;44.97;42.40;;;;;;;;;;5039713;28;20041;-61
2022/08/17 09:35:18;;;;;;;41.95;39.83;;;;;;;;;;5038296;28;20033;-62
2022/08/17 09:38:06;;;;;;;47.97;45.47;;;;;;;;;;5037440;28;20652;-62
2022/08/17 09:40:38;;;;;;;53.45;50.75;;;;;;;;;;5030357;28;20135;-62
2022/08/17 09:43:23;;;;;;;53.30;50.60;;;;;;;;;;5039728;28;20070;-62
2022/08/17 09:45:57;;;;;;;50.92;48.33;;;;;;;;;;5044080;28;20120;-62
2022/08/17 09:48:34;;;;;;;44.08;41.67;;;;;;;;;;5041698;28;20029;-62
2022/08/17 09:51:33;;;;;;;48.42;45.85;;;;;;;;;;5038375;28;20036;-62
2022/08/17 09:53:59;;;;;;;36.67;34.67;;;;;;;;;;5036846;28;20028;-61
2022/08/17 09:56:39;;;;;;;42.63;40.42;;;;;;;;;;5039977;28;20474;-61
2022/08/17 09:59:15;;;;;;;21.05;19.85;;;;;;;;;;5035348;28;20095;-61
2022/08/17 10:02:24;;;;;;;22.10;20.85;;;;;;;;;;5035811;28;20517;-63
2022/08/17 10:05:05;;;;;;;19.25;18.15;;;;;;;;;;5011719;28;20128;-62
2022/08/17 10:07:42;;;;;;;18.52;17.50;;;;;;;;;;5041754;28;20045;-62
2022/08/17 10:10:24;;;;;;;22.27;21.05;;;;;;;;;;5040622;28;20055;-61
2022/08/17 10:13:24;;;;;;;21.52;20.33;;;;;;;;;;5038650;28;20037;-61
2022/08/17 10:16:14;;;;;;;20.20;19.02;;;;;;;;;;5038604;28;20868;-62
2022/08/17 10:18:55;;;;;;;23.95;22.65;;;;;;;;;;5037110;28;20038;-62
2022/08/17 10:27:02;;;;;;;32.03;30.30;;;;;;;;;;5038217;28;20127;-62
2022/08/17 10:29:33;;;;;;;19.38;18.27;;;;;;;;;;5035366;28;20113;-61
2022/08/17 10:32:07;;;;;;;19.27;17.90;;;;;;;;;;5039882;28;20033;-61
2022/08/17 10:34:58;;;;;;;23.45;22.15;;;;;;;;;;5036969;28;20094;-61
2022/08/17 10:37:42;;;;;;;16.42;15.32;;;;;;;;;;5040034;28;20047;-61
2022/08/17 10:40:23;;;;;;;30.45;28.85;;;;;;;;;;5035430;28;20502;-62
2022/08/17 10:43:31;;;;;;;20.60;19.40;;;;;;;;;;5039134;28;20028;-61
2022/08/17 10:47:00;;;;;;;20.75;19.42;;;;;;;;;;4957950;28;20122;-61
2022/08/17 10:49:29;;;;;;;14.05;13.25;;;;;;;;;;4985306;28;20585;-62
2022/08/17 10:51:57;;;;;;;;;;;;;;;;;;4982187;28;20050;-61
2022/08/17 10:54:22;;;;;;;15.18;14.30;;;;;;;;;;5017516;28;19974;-61
2022/08/17 10:56:50;;;;;;;12.75;11.95;;;;;;;;;;5036540;28;20041;-60
2022/08/17 10:59:34;;;;;;;12.30;11.57;;;;;;;;;;5039144;28;20021;-62
2022/08/17 11:02:14;;;;;;;11.45;10.75;;;;;;;;;;5038503;28;20044;-62
2022/08/17 11:05:00;;;;;;;12.45;11.70;;;;;;;;;;5037523;28;20037;-61
2022/08/17 11:07:50;;;;;;;12.18;11.48;;;;;;;;;;5036147;28;20025;-62
2022/08/17 11:10:41;;;;;;;13.52;12.73;;;;;;;;;;5037281;28;20033;-62
2022/08/17 11:13:43;;;;;;;15.95;15.05;;;;;;;;;;5032967;28;20029;-62
2022/08/17 11:16:47;;;;;;;13.82;13.02;;;;;;;;;;5037654;28;20033;-61
2022/08/17 11:19:42;;;;;;;14.32;13.52;;;;;;;;;;5044318;28;20036;-60
2022/08/17 11:22:25;;;;;;;14.05;13.15;;;;;;;;;;5036885;28;20030;-60
2022/08/17 11:24:52;;;;;;;15.75;14.55;;;;;;;;;;5036791;28;20041;-62
2022/08/17 11:27:24;;;;;;;12.88;12.07;;;;;;;;;;5037690;28;20042;-61
2022/08/17 11:30:12;;;;;;;10.68;9.98;;;;;;;;;;5041418;28;20124;-62
2022/08/17 11:32:44;;;;;;;11.95;11.05;;;;;;;;;;5037594;28;20037;-61
2022/08/17 11:35:43;;;;;;;11.63;10.93;;;;;;;;;;5036051;28;20672;-60
2022/08/17 11:38:28;;;;;;;11.02;10.32;;;;;;;;;;5039467;28;20057;-61
2022/08/17 11:41:18;;;;;;;11.90;11.10;;;;;;;;;;5039489;28;20029;-61
2022/08/17 11:43:57;;;;;;;14.43;13.45;;;;;;;;;;5039862;28;20105;-61
2022/08/17 11:51:32;;;;;;;11.50;10.80;;;;;;;;;;5035469;28;20116;-60
2022/08/17 11:52:31;;;;;;;14.68;13.82;;;;;;;;;;5040940;28;20041;-60
2022/08/17 11:54:58;;;;;;;17.10;16.13;;;;;;;;;;5039060;28;20091;-59
2022/08/17 11:57:26;;;;;;;17.50;16.50;;;;;;;;;;5038174;28;20033;-60
2022/08/17 11:59:52;;;;;;;14.40;13.57;;;;;;;;;;5038439;28;20045;-60
2022/08/17 12:02:30;;;;;;;16.38;15.48;;;;;;;;;;5038105;28;20033;-59
2022/08/17 12:05:19;;;;;;;13.48;12.65;;;;;;;;;;5042919;28;20040;-61
2022/08/17 12:07:53;;;;;;;19.38;18.30;;;;;;;;;;5039700;28;20059;-60
2022/08/17 12:10:28;;;;;;;19.40;18.02;;;;;;;;;;5039795;28;20129;-60
2022/08/17 12:12:54;;;;;;;17.25;16.25;;;;;;;;;;5041300;28;20099;-60
2022/08/17 12:15:38;;;;;;;15.73;14.82;;;;;;;;;;5040401;28;20029;-61
2022/08/17 12:18:03;;;;;;;24.23;22.92;;;;;;;;;;5038356;28;20141;-62
2022/08/17 12:20:34;;;;;;;26.33;24.77;;;;;;;;;;5040628;28;20053;-60
2022/08/17 12:23:03;;;;;;;20.40;19.25;;;;;;;;;;5041850;28;20036;-59
2022/08/17 12:25:48;;;;;;;30.23;28.55;;;;;;;;;;5040167;28;20092;-59
2022/08/17 12:28:26;;;;;;;26.80;25.40;;;;;;;;;;5040065;28;20037;-60
2022/08/17 12:30:52;;;;;;;29.48;27.92;;;;;;;;;;5037608;28;20036;-61
2022/08/17 12:33:22;;;;;;;32.75;31.08;;;;;;;;;;5040369;28;20048;-61
2022/08/17 12:35:56;;;;;;;24.80;23.50;;;;;;;;;;5036454;28;20093;-60
2022/08/17 12:38:21;;;;;;;25.60;24.20;;;;;;;;;;5037602;28;20056;-61
2022/08/17 12:40:55;;;;;;;36.65;34.75;;;;;;;;;;5039385;28;20677;-59
2022/08/17 12:43:26;;;;;;;32.80;31.05;;;;;;;;;;5038618;28;20482;-59
2022/08/17 12:46:00;;;;;;;31.00;29.35;;;;;;;;;;5036992;28;20041;-61
2022/08/17 12:48:28;;;;;;;37.28;35.38;;;;;;;;;;5037936;28;20552;-59
2022/08/17 12:51:02;;;;;;;29.50;27.92;;;;;;;;;;5037393;28;20669;-59
2022/08/17 12:53:30;;;;;;;26.15;24.75;;;;;;;;;;5036323;28;20076;-60
2022/08/17 12:55:58;;;;;;;28.48;26.98;;;;;;;;;;5041427;28;20549;-61
2022/08/17 12:58:29;;;;;;;37.45;35.53;;;;;;;;;;5040832;28;20037;-64
2022/08/17 13:01:13;;;;;;;35.80;33.83;;;;;;;;;;5037306;28;20052;-61
2022/08/17 13:03:43;;;;;;;21.45;20.23;;;;;;;;;;5034308;28;20041;-61
2022/08/17 13:06:11;;;;;;;37.85;35.75;;;;;;;;;;5037651;28;20168;-61
2022/08/17 13:08:41;;;;;;;33.45;31.48;;;;;;;;;;5041193;28;20036;-61
2022/08/17 13:11:10;;;;;;;;;;;;;;;;;;5035927;28;20044;-61
2022/08/17 13:13:39;;;;;;;41.53;39.42;;;;;;;;;;5035023;28;19939;-61
2022/08/17 13:16:08;;;;;;;39.28;37.25;;;;;;;;;;5037029;28;20601;-59
2022/08/17 13:18:41;;;;;;;19.43;18.37;;;;;;;;;;5036638;28;20068;-60
2022/08/17 13:21:26;;;;;;;50.90;48.10;;;;;;;;;;5038767;28;20513;-60
2022/08/17 13:23:58;;;;;;;51.58;48.95;;;;;;;;;;5036535;28;20524;-59
2022/08/17 13:26:30;;;;;;;53.28;50.58;;;;;;;;;;5037159;28;20041;-60
2022/08/17 13:28:56;;;;;;;52.78;50.10;;;;;;;;;;5037319;28;20025;-60
2022/08/17 13:31:33;;;;;;;47.13;44.72;;;;;;;;;;5035079;28;20038;-60
2022/08/17 13:34:24;;;;;;;63.40;60.22;;;;;;;;;;5038215;28;20495;-60
2022/08/17 13:36:52;;;;;;;59.17;56.17;;;;;;;;;;5038476;28;20439;-60
2022/08/17 13:39:21;;;;;;;44.70;42.38;;;;;;;;;;5036908;28;20036;-59
2022/08/17 13:41:48;;;;;;;59.80;56.80;;;;;;;;;;5038656;28;20058;-60
2022/08/17 13:44:30;;;;;;;63.92;60.75;;;;;;;;;;5036861;28;20402;-60
2022/08/17 13:46:56;;;;;;;60.30;57.30;;;;;;;;;;5037734;28;20128;-61
2022/08/17 13:49:22;;;;;;;47.42;44.97;;;;;;;;;;5036610;28;20093;-60
2022/08/17 13:51:48;;;;;;;38.17;36.20;;;;;;;;;;5036767;28;20475;-61
2022/08/17 13:54:33;;;;;;;63.55;60.38;;;;;;;;;;5038048;28;20036;-61
2022/08/17 13:57:16;;;;;;;31.20;29.50;;;;;;;;;;5038788;28;20360;-61
2022/08/17 13:59:46;;;;;;;67.30;63.90;;;;;;;;;;5039257;28;20391;-61
2022/08/17 14:02:12;;;;;;;37.38;35.47;;;;;;;;;;5033242;28;20029;-61
2022/08/17 14:04:40;;;;;;;37.80;35.88;;;;;;;;;;5036794;28;20075;-61
2022/08/17 14:07:11;;;;;;;34.20;32.42;;;;;;;;;;5036971;28;20713;-61
2022/08/17 14:09:58;;;;;;;47.55;45.13;;;;;;;;;;5035552;28;20037;-60
2022/08/17 14:12:26;;;;;;;50.50;47.88;;;;;;;;;;5036322;28;20029;-61
2022/08/17 14:14:53;;;;;;;47.08;44.70;;;;;;;;;;5036363;28;20032;-60
2022/08/17 14:17:21;;;;;;;84.07;79.90;;;;;;;;;;5037214;28;20021;-61
2022/08/17 14:19:47;;;;;;;72.25;68.65;;;;;;;;;;5034761;28;20025;-62
2022/08/17 14:22:25;;;;;;;90.43;86.00;;;;;;;;;;5034988;28;20029;-62
2022/08/17 14:24:52;;;;;;;56.60;53.75;;;;;;;;;;5037546;28;20033;-62
2022/08/17 14:27:19;;;;;;;119.95;114.05;;;;;;;;;;5036017;28;20037;-61
2022/08/17 14:29:45;;;;;;;74.43;70.75;;;;;;;;;;5034515;28;20036;-61
2022/08/17 14:32:23;;;;;;;87.95;83.60;;;;;;;;;;5036320;28;20049;-61
2022/08/17 14:34:50;;;;;;;115.07;109.43;;;;;;;;;;5033918;28;20041;-61
2022/08/17 14:37:17;;;;;;;113.32;107.65;;;;;;;;;;5035990;28;20021;-63
2022/08/17 14:39:43;;;;;;;112.47;106.95;;;;;;;;;;5034524;28;20033;-61
2022/08/17 14:42:10;;;;;;;144.13;137.05;;;;;;;;;;5035416;28;20447;-61
2022/08/17 14:44:37;;;;;;;165.65;157.48;;;;;;;;;;5035506;28;20036;-61
2022/08/17 14:47:03;;;;;;;172.82;164.32;;;;;;;;;;5036581;28;20443;-61
2022/08/17 14:49:30;;;;;;;163.77;155.70;;;;;;;;;;5036146;28;20064;-62
2022/08/17 14:51:56;;;;;;;173.45;164.98;;;;;;;;;;5035464;28;20032;-62
2022/08/17 14:54:21;;;;;;;180.50;171.63;;;;;;;;;;5034164;28;20032;-60
2022/08/17 14:56:46;;;;;;;169.02;160.73;;;;;;;;;;5040478;28;20033;-60
2022/08/17 14:59:15;;;;;;;167.77;159.48;;;;;;;;;;5039767;28;20025;-60
2022/08/17 15:01:41;;;;;;;164.73;156.53;;;;;;;;;;5036001;28;20099;-60
2022/08/17 15:04:07;;;;;;;166.27;158.15;;;;;;;;;;5040100;28;20272;-61
2022/08/17 15:06:33;;;;;;;166.55;158.38;;;;;;;;;;5032879;28;20045;-60
2022/08/17 15:09:00;;;;;;;105.72;100.47;;;;;;;;;;5035342;28;20036;-61
2022/08/17 15:11:26;;;;;;;162.57;154.52;;;;;;;;;;5035107;28;20025;-60
2022/08/17 15:13:51;;;;;;;161.00;153.05;;;;;;;;;;5035019;28;20104;-60
2022/08/17 15:16:17;;;;;;;161.52;153.55;;;;;;;;;;5035582;28;20120;-61